Pat Luke — WDH2891 — position and weather

sailwx.info

Track history (hours):
 
Tides and Currents Weather Stations Pressure Air Temp Water Temp Dewpoint Dewpoint Depression Visibility Wind Speed Wind Dir Waves Ship Positions

Pat Luke

Owner: Al Cenac LLC, Houma, LA. More information available from US FCC via Universal Licensing System and Coast Guard Vessel Documentation Center.

Last reported at 2017-Sep-21 06:02 UTC. Time now 2017-Sep-26 01:58 UTC.
Position N 29°34' W 090°57'.

Length 10 m; draft 1 m.

Type: Tug. MMSI: 367602270.

Date/timePositionNaut miles runAvg speedWind from/ knotsBaromVisibWave heightAir tempDewpointWater temp
2017-Sep-21 06:02N 29°34' W 090°57'2 5.6
2017-Sep-21 05:41N 29°33' W 090°55'3 5.7
2017-Sep-21 05:13N 29°32' W 090°52'1 6.0
2017-Sep-21 05:00N 29°32' W 090°50'1 2.6
2017-Sep-21 04:29N 29°32' W 090°49'1 2.4
2017-Sep-21 03:59N 29°32' W 090°48'1 2.4
2017-Sep-21 03:30N 29°32' W 090°46'1 2.2
2017-Sep-21 03:00N 29°33' W 090°45'1 2.2
2017-Sep-21 02:30N 29°34' W 090°45'1 2.2
2017-Sep-21 02:00N 29°34' W 090°43'1 2.4
2017-Sep-21 01:30N 29°35' W 090°43'1 2.6
2017-Sep-21 01:00N 29°36' W 090°43'1 2.2
2017-Sep-21 00:30N 29°36' W 090°41'1 2.7
2017-Sep-21 00:00N 29°36' W 090°40'0 0.1
2017-Sep-20 23:30N 29°36' W 090°40'0 0.0
2017-Sep-20 23:00N 29°36' W 090°40'0 0.0
2017-Sep-20 22:30N 29°36' W 090°40'0 1.0
2017-Sep-20 22:00N 29°36' W 090°39'1 2.3
2017-Sep-20 21:30N 29°35' W 090°38'1 2.7
2017-Sep-20 21:00N 29°35' W 090°37'1 2.7
2017-Sep-20 20:29N 29°35' W 090°35'1 2.8
2017-Sep-20 20:00N 29°34' W 090°34'1 2.7
2017-Sep-20 19:30N 29°34' W 090°32'1 2.8
2017-Sep-20 19:00N 29°34' W 090°31'  
2017-Sep-14 14:49N 29°34' W 090°28'1 3.2
2017-Sep-14 14:30N 29°34' W 090°30'2 3.2
2017-Sep-14 14:00N 29°34' W 090°31'2 3.3
2017-Sep-14 13:30N 29°34' W 090°33'2 3.2
2017-Sep-14 13:00N 29°35' W 090°35'2 3.3
2017-Sep-14 12:30N 29°35' W 090°37'2 3.3
2017-Sep-14 12:00N 29°35' W 090°39'2 3.5
2017-Sep-14 11:30N 29°36' W 090°40'2 3.4
2017-Sep-14 11:00N 29°37' W 090°42'2 3.3
2017-Sep-14 10:30N 29°35' W 090°43'2 3.1
2017-Sep-14 10:00N 29°34' W 090°44'1 2.7
2017-Sep-14 09:30N 29°33' W 090°45'1 1.1
2017-Sep-14 09:00N 29°33' W 090°45'0 0.4
2017-Sep-14 08:30N 29°33' W 090°45'0 0.7
2017-Sep-14 08:00N 29°32' W 090°46'1 2.9
2017-Sep-14 07:30N 29°32' W 090°47'2 3.2
2017-Sep-14 07:00N 29°32' W 090°49'2 3.3
2017-Sep-14 06:30N 29°32' W 090°51'7 3.1
2017-Sep-14 04:19N 29°35' W 090°58'58 2.4
2017-Sep-13 04:02N 29°49' W 092°02'0 3.2
2017-Sep-13 03:59N 29°49' W 092°02'2 3.3
2017-Sep-13 03:30N 29°48' W 092°04'2 3.5
2017-Sep-13 03:00N 29°48' W 092°06'2 3.6
2017-Sep-13 02:30N 29°47' W 092°08'2 4.1
2017-Sep-13 02:00N 29°47' W 092°10'2 4.4
2017-Sep-13 01:30N 29°47' W 092°13'2 4.3
2017-Sep-13 01:00N 29°48' W 092°15'4 4.2
2017-Sep-13 00:10N 29°50' W 092°18'1 4.3
2017-Sep-13 00:00N 29°50' W 092°19'50 3.1
2017-Sep-12 07:59N 30°02' W 093°15'1 2.7
2017-Sep-12 07:29N 30°03' W 093°16'2 2.8
2017-Sep-12 06:35N 30°05' W 093°17'0 2.0
2017-Sep-12 06:29N 30°05' W 093°18'1 2.5
2017-Sep-12 06:00N 30°06' W 093°19'2 2.9
2017-Sep-12 05:29N 30°05' W 093°20'1 2.9
2017-Sep-12 05:00N 30°04' W 093°20'2 3.1
2017-Sep-12 04:30N 30°02' W 093°20'2 3.1
2017-Sep-12 04:00N 30°00' W 093°20'2 3.1
2017-Sep-12 03:30N 29°59' W 093°20'2 3.1
2017-Sep-12 03:00N 29°57' W 093°20'2 3.2
2017-Sep-12 02:30N 29°56' W 093°20'2 3.3
2017-Sep-12 02:00N 29°54' W 093°21'2 3.6
2017-Sep-12 01:30N 29°52' W 093°21'2 4.1
2017-Sep-12 01:00N 29°50' W 093°21'2 3.7
2017-Sep-12 00:29N 29°48' W 093°21'1 0.3
2017-Sep-11 22:45N 29°49' W 093°21'2 7.4
2017-Sep-11 22:30N 29°51' W 093°21'4 7.4
2017-Sep-11 22:00N 29°54' W 093°20'4 8.1
2017-Sep-11 21:30N 29°58' W 093°20'4 8.2
2017-Sep-11 21:00N 30°02' W 093°20'4 7.5
2017-Sep-11 20:30N 30°06' W 093°19'3 6.0
2017-Sep-11 20:00N 30°04' W 093°16'3 5.5
2017-Sep-11 19:30N 30°02' W 093°14'1 2.8
2017-Sep-11 19:00N 30°00' W 093°14'0 0.0
2017-Sep-11 18:30N 30°00' W 093°14'0 0.0
2017-Sep-11 18:00N 30°00' W 093°14'0 0.0
2017-Sep-11 17:30N 30°00' W 093°14'0 0.0
2017-Sep-11 17:00N 30°00' W 093°14'0 0.0
2017-Sep-11 16:30N 30°00' W 093°14'0 0.0
2017-Sep-11 16:00N 30°00' W 093°14'0 0.0
2017-Sep-11 15:30N 30°00' W 093°14'0 0.0
2017-Sep-11 14:52N 30°00' W 093°14'0 0.0
2017-Sep-11 14:30N 30°00' W 093°14'0 0.0
2017-Sep-11 14:00N 30°00' W 093°14'0 0.0
2017-Sep-11 13:28N 30°00' W 093°14'0 0.0
2017-Sep-11 12:01N 30°00' W 093°14'0 0.0
2017-Sep-11 12:00N 30°00' W 093°14'0 0.0
2017-Sep-11 11:28N 30°00' W 093°14'0 0.0
2017-Sep-11 11:00N 30°00' W 093°14'3 5.7
2017-Sep-11 10:30N 29°58' W 093°12'3 6.1
2017-Sep-11 09:56N 29°56' W 093°08'3 6.4
2017-Sep-11 09:23N 29°56' W 093°04'  
Track history (hours):
 
Tides and Currents Weather Stations Pressure Air Temp Water Temp Dewpoint Dewpoint Depression Visibility Wind Speed Wind Dir Waves Ship Positions

Pat Luke

Owner: Al Cenac LLC, Houma, LA. More information available from US FCC via Universal Licensing System and Coast Guard Vessel Documentation Center.

Last reported at 2017-Sep-21 06:02 UTC. Time now 2017-Sep-26 01:58 UTC.
Position N 29°34' W 090°57'.

Length 10 m; draft 1 m.

Type: Tug. MMSI: 367602270.

Date/timePositionNaut miles runAvg speedWind from/ knotsBaromVisibWave heightAir tempDewpointWater temp
2017-Sep-21 06:02N 29°34' W 090°57'2 5.6
2017-Sep-21 05:41N 29°33' W 090°55'3 5.7
2017-Sep-21 05:13N 29°32' W 090°52'1 6.0
2017-Sep-21 05:00N 29°32' W 090°50'1 2.6
2017-Sep-21 04:29N 29°32' W 090°49'1 2.4
2017-Sep-21 03:59N 29°32' W 090°48'1 2.4
2017-Sep-21 03:30N 29°32' W 090°46'1 2.2
2017-Sep-21 03:00N 29°33' W 090°45'1 2.2
2017-Sep-21 02:30N 29°34' W 090°45'1 2.2
2017-Sep-21 02:00N 29°34' W 090°43'1 2.4
2017-Sep-21 01:30N 29°35' W 090°43'1 2.6
2017-Sep-21 01:00N 29°36' W 090°43'1 2.2
2017-Sep-21 00:30N 29°36' W 090°41'1 2.7
2017-Sep-21 00:00N 29°36' W 090°40'0 0.1
2017-Sep-20 23:30N 29°36' W 090°40'0 0.0
2017-Sep-20 23:00N 29°36' W 090°40'0 0.0
2017-Sep-20 22:30N 29°36' W 090°40'0 1.0
2017-Sep-20 22:00N 29°36' W 090°39'1 2.3
2017-Sep-20 21:30N 29°35' W 090°38'1 2.7
2017-Sep-20 21:00N 29°35' W 090°37'1 2.7
2017-Sep-20 20:29N 29°35' W 090°35'1 2.8
2017-Sep-20 20:00N 29°34' W 090°34'1 2.7
2017-Sep-20 19:30N 29°34' W 090°32'1 2.8
2017-Sep-20 19:00N 29°34' W 090°31'  
2017-Sep-14 14:49N 29°34' W 090°28'1 3.2
2017-Sep-14 14:30N 29°34' W 090°30'2 3.2
2017-Sep-14 14:00N 29°34' W 090°31'2 3.3
2017-Sep-14 13:30N 29°34' W 090°33'2 3.2
2017-Sep-14 13:00N 29°35' W 090°35'2 3.3
2017-Sep-14 12:30N 29°35' W 090°37'2 3.3
2017-Sep-14 12:00N 29°35' W 090°39'2 3.5
2017-Sep-14 11:30N 29°36' W 090°40'2 3.4
2017-Sep-14 11:00N 29°37' W 090°42'2 3.3
2017-Sep-14 10:30N 29°35' W 090°43'2 3.1
2017-Sep-14 10:00N 29°34' W 090°44'1 2.7
2017-Sep-14 09:30N 29°33' W 090°45'1 1.1
2017-Sep-14 09:00N 29°33' W 090°45'0 0.4
2017-Sep-14 08:30N 29°33' W 090°45'0 0.7
2017-Sep-14 08:00N 29°32' W 090°46'1 2.9
2017-Sep-14 07:30N 29°32' W 090°47'2 3.2
2017-Sep-14 07:00N 29°32' W 090°49'2 3.3
2017-Sep-14 06:30N 29°32' W 090°51'7 3.1
2017-Sep-14 04:19N 29°35' W 090°58'58 2.4
2017-Sep-13 04:02N 29°49' W 092°02'0 3.2
2017-Sep-13 03:59N 29°49' W 092°02'2 3.3
2017-Sep-13 03:30N 29°48' W 092°04'2 3.5
2017-Sep-13 03:00N 29°48' W 092°06'2 3.6
2017-Sep-13 02:30N 29°47' W 092°08'2 4.1
2017-Sep-13 02:00N 29°47' W 092°10'2 4.4
2017-Sep-13 01:30N 29°47' W 092°13'2 4.3
2017-Sep-13 01:00N 29°48' W 092°15'4 4.2
2017-Sep-13 00:10N 29°50' W 092°18'1 4.3
2017-Sep-13 00:00N 29°50' W 092°19'50 3.1
2017-Sep-12 07:59N 30°02' W 093°15'1 2.7
2017-Sep-12 07:29N 30°03' W 093°16'2 2.8
2017-Sep-12 06:35N 30°05' W 093°17'0 2.0
2017-Sep-12 06:29N 30°05' W 093°18'1 2.5
2017-Sep-12 06:00N 30°06' W 093°19'2 2.9
2017-Sep-12 05:29N 30°05' W 093°20'1 2.9
2017-Sep-12 05:00N 30°04' W 093°20'2 3.1
2017-Sep-12 04:30N 30°02' W 093°20'2 3.1
2017-Sep-12 04:00N 30°00' W 093°20'2 3.1
2017-Sep-12 03:30N 29°59' W 093°20'2 3.1
2017-Sep-12 03:00N 29°57' W 093°20'2 3.2
2017-Sep-12 02:30N 29°56' W 093°20'2 3.3
2017-Sep-12 02:00N 29°54' W 093°21'2 3.6
2017-Sep-12 01:30N 29°52' W 093°21'2 4.1
2017-Sep-12 01:00N 29°50' W 093°21'2 3.7
2017-Sep-12 00:29N 29°48' W 093°21'1 0.3
2017-Sep-11 22:45N 29°49' W 093°21'2 7.4
2017-Sep-11 22:30N 29°51' W 093°21'4 7.4
2017-Sep-11 22:00N 29°54' W 093°20'4 8.1
2017-Sep-11 21:30N 29°58' W 093°20'4 8.2
2017-Sep-11 21:00N 30°02' W 093°20'4 7.5
2017-Sep-11 20:30N 30°06' W 093°19'3 6.0
2017-Sep-11 20:00N 30°04' W 093°16'3 5.5
2017-Sep-11 19:30N 30°02' W 093°14'1 2.8
2017-Sep-11 19:00N 30°00' W 093°14'0 0.0
2017-Sep-11 18:30N 30°00' W 093°14'0 0.0
2017-Sep-11 18:00N 30°00' W 093°14'0 0.0
2017-Sep-11 17:30N 30°00' W 093°14'0 0.0
2017-Sep-11 17:00N 30°00' W 093°14'0 0.0
2017-Sep-11 16:30N 30°00' W 093°14'0 0.0
2017-Sep-11 16:00N 30°00' W 093°14'0 0.0
2017-Sep-11 15:30N 30°00' W 093°14'0 0.0
2017-Sep-11 14:52N 30°00' W 093°14'0 0.0
2017-Sep-11 14:30N 30°00' W 093°14'0 0.0
2017-Sep-11 14:00N 30°00' W 093°14'0 0.0
2017-Sep-11 13:28N 30°00' W 093°14'0 0.0
2017-Sep-11 12:01N 30°00' W 093°14'0 0.0
2017-Sep-11 12:00N 30°00' W 093°14'0 0.0
2017-Sep-11 11:28N 30°00' W 093°14'0 0.0
2017-Sep-11 11:00N 30°00' W 093°14'3 5.7
2017-Sep-11 10:30N 29°58' W 093°12'3 6.1
2017-Sep-11 09:56N 29°56' W 093°08'3 6.4
2017-Sep-11 09:23N 29°56' W 093°04'  

Dump ship's entire track history